sensor_id;sensor_type;location;lat;lon;timestamp;P1;durP1;ratioP1;P2;durP2;ratioP2
3543;SDS011;1786;52.870;9.578;2022-11-12T00:01:55;15.97;;;10.53;;
3543;SDS011;1786;52.870;9.578;2022-11-12T00:04:40;13.67;;;9.67;;
3543;SDS011;1786;52.870;9.578;2022-11-12T00:07:26;15.90;;;9.43;;
3543;SDS011;1786;52.870;9.578;2022-11-12T00:10:11;19.20;;;10.70;;
3543;SDS011;1786;52.870;9.578;2022-11-12T00:12:57;18.47;;;11.37;;
3543;SDS011;1786;52.870;9.578;2022-11-12T00:15:42;15.47;;;10.17;;
3543;SDS011;1786;52.870;9.578;2022-11-12T00:18:27;16.23;;;11.13;;
3543;SDS011;1786;52.870;9.578;2022-11-12T00:21:13;14.73;;;9.73;;
3543;SDS011;1786;52.870;9.578;2022-11-12T00:23:58;17.40;;;11.87;;
3543;SDS011;1786;52.870;9.578;2022-11-12T00:26:43;18.23;;;10.93;;
3543;SDS011;1786;52.870;9.578;2022-11-12T00:29:28;18.87;;;11.03;;
3543;SDS011;1786;52.870;9.578;2022-11-12T00:32:14;20.07;;;11.47;;
3543;SDS011;1786;52.870;9.578;2022-11-12T00:34:59;16.10;;;11.00;;
3543;SDS011;1786;52.870;9.578;2022-11-12T00:37:46;18.67;;;11.70;;
3543;SDS011;1786;52.870;9.578;2022-11-12T00:40:31;18.90;;;11.10;;
3543;SDS011;1786;52.870;9.578;2022-11-12T00:43:16;21.83;;;11.77;;
3543;SDS011;1786;52.870;9.578;2022-11-12T00:46:02;17.20;;;10.90;;
3543;SDS011;1786;52.870;9.578;2022-11-12T00:48:47;21.27;;;11.47;;
3543;SDS011;1786;52.870;9.578;2022-11-12T00:51:33;23.33;;;15.07;;
3543;SDS011;1786;52.870;9.578;2022-11-12T00:54:19;25.43;;;13.80;;
3543;SDS011;1786;52.870;9.578;2022-11-12T00:57:04;20.90;;;13.10;;
3543;SDS011;1786;52.870;9.578;2022-11-12T00:59:50;21.93;;;12.90;;
3543;SDS011;1786;52.870;9.578;2022-11-12T01:02:35;19.47;;;12.33;;
3543;SDS011;1786;52.870;9.578;2022-11-12T01:05:27;21.87;;;13.33;;
3543;SDS011;1786;52.870;9.578;2022-11-12T01:08:12;18.77;;;12.57;;
3543;SDS011;1786;52.870;9.578;2022-11-12T01:11:31;17.10;;;12.27;;
3543;SDS011;1786;52.870;9.578;2022-11-12T01:14:10;21.23;;;14.83;;
3543;SDS011;1786;52.870;9.578;2022-11-12T01:16:55;21.43;;;14.23;;
3543;SDS011;1786;52.870;9.578;2022-11-12T01:19:41;22.30;;;14.77;;
3543;SDS011;1786;52.870;9.578;2022-11-12T01:22:27;20.13;;;12.90;;
3543;SDS011;1786;52.870;9.578;2022-11-12T01:25:13;20.10;;;12.33;;
3543;SDS011;1786;52.870;9.578;2022-11-12T01:27:58;12.53;;;9.40;;
3543;SDS011;1786;52.870;9.578;2022-11-12T01:30:43;8.93;;;8.03;;
3543;SDS011;1786;52.870;9.578;2022-11-12T01:33:29;10.63;;;8.60;;
3543;SDS011;1786;52.870;9.578;2022-11-12T01:36:15;14.30;;;8.03;;
3543;SDS011;1786;52.870;9.578;2022-11-12T01:39:02;12.90;;;8.80;;
3543;SDS011;1786;52.870;9.578;2022-11-12T01:41:48;11.40;;;7.50;;
3543;SDS011;1786;52.870;9.578;2022-11-12T01:44:36;9.83;;;8.33;;
3543;SDS011;1786;52.870;9.578;2022-11-12T01:47:26;13.10;;;7.70;;
3543;SDS011;1786;52.870;9.578;2022-11-12T01:50:25;9.77;;;8.50;;
3543;SDS011;1786;52.870;9.578;2022-11-12T01:53:15;12.63;;;9.40;;
3543;SDS011;1786;52.870;9.578;2022-11-12T01:56:01;11.10;;;8.37;;
3543;SDS011;1786;52.870;9.578;2022-11-12T01:58:51;10.13;;;7.77;;
3543;SDS011;1786;52.870;9.578;2022-11-12T02:01:43;7.97;;;7.00;;
3543;SDS011;1786;52.870;9.578;2022-11-12T02:04:28;13.87;;;8.47;;
3543;SDS011;1786;52.870;9.578;2022-11-12T02:07:16;11.43;;;8.00;;
3543;SDS011;1786;52.870;9.578;2022-11-12T02:10:03;11.30;;;8.37;;
3543;SDS011;1786;52.870;9.578;2022-11-12T02:12:49;14.87;;;7.80;;
3543;SDS011;1786;52.870;9.578;2022-11-12T02:15:56;10.07;;;8.23;;
3543;SDS011;1786;52.870;9.578;2022-11-12T02:18:42;12.90;;;7.53;;
3543;SDS011;1786;52.870;9.578;2022-11-12T02:21:28;10.07;;;8.00;;
3543;SDS011;1786;52.870;9.578;2022-11-12T02:26:59;11.20;;;7.03;;
3543;SDS011;1786;52.870;9.578;2022-11-12T02:29:45;10.33;;;6.10;;
3543;SDS011;1786;52.870;9.578;2022-11-12T02:32:31;7.80;;;5.80;;
3543;SDS011;1786;52.870;9.578;2022-11-12T02:35:17;6.10;;;5.50;;
3543;SDS011;1786;52.870;9.578;2022-11-12T02:38:02;6.80;;;5.93;;
3543;SDS011;1786;52.870;9.578;2022-11-12T02:43:57;7.70;;;5.77;;
3543;SDS011;1786;52.870;9.578;2022-11-12T02:46:43;11.13;;;5.50;;
3543;SDS011;1786;52.870;9.578;2022-11-12T02:49:28;5.80;;;5.10;;
3543;SDS011;1786;52.870;9.578;2022-11-12T02:52:13;5.77;;;4.63;;
3543;SDS011;1786;52.870;9.578;2022-11-12T02:54:59;5.90;;;4.90;;
3543;SDS011;1786;52.870;9.578;2022-11-12T02:57:45;4.93;;;4.43;;
3543;SDS011;1786;52.870;9.578;2022-11-12T03:00:30;5.20;;;4.70;;
3543;SDS011;1786;52.870;9.578;2022-11-12T03:03:16;6.87;;;4.23;;
3543;SDS011;1786;52.870;9.578;2022-11-12T03:06:04;7.97;;;5.17;;
3543;SDS011;1786;52.870;9.578;2022-11-12T03:08:50;4.93;;;4.53;;
3543;SDS011;1786;52.870;9.578;2022-11-12T03:11:35;5.90;;;4.70;;
3543;SDS011;1786;52.870;9.578;2022-11-12T03:14:20;7.90;;;4.90;;
3543;SDS011;1786;52.870;9.578;2022-11-12T03:17:08;6.97;;;4.77;;
3543;SDS011;1786;52.870;9.578;2022-11-12T03:19:54;7.60;;;5.10;;
3543;SDS011;1786;52.870;9.578;2022-11-12T03:22:39;7.20;;;4.80;;
3543;SDS011;1786;52.870;9.578;2022-11-12T03:25:24;9.53;;;5.03;;
3543;SDS011;1786;52.870;9.578;2022-11-12T03:28:11;4.67;;;3.87;;
3543;SDS011;1786;52.870;9.578;2022-11-12T03:30:58;6.53;;;4.33;;
3543;SDS011;1786;52.870;9.578;2022-11-12T03:33:45;4.77;;;4.20;;
3543;SDS011;1786;52.870;9.578;2022-11-12T03:36:30;5.60;;;4.37;;
3543;SDS011;1786;52.870;9.578;2022-11-12T03:39:16;12.33;;;4.50;;
3543;SDS011;1786;52.870;9.578;2022-11-12T03:42:01;4.00;;;3.70;;
3543;SDS011;1786;52.870;9.578;2022-11-12T03:44:47;5.67;;;4.43;;
3543;SDS011;1786;52.870;9.578;2022-11-12T03:47:33;4.90;;;4.40;;
3543;SDS011;1786;52.870;9.578;2022-11-12T03:50:22;6.60;;;4.40;;
3543;SDS011;1786;52.870;9.578;2022-11-12T03:53:09;4.30;;;3.50;;
3543;SDS011;1786;52.870;9.578;2022-11-12T03:55:55;3.70;;;3.43;;
3543;SDS011;1786;52.870;9.578;2022-11-12T03:58:42;4.53;;;4.13;;
3543;SDS011;1786;52.870;9.578;2022-11-12T04:01:34;3.90;;;3.60;;
3543;SDS011;1786;52.870;9.578;2022-11-12T04:04:56;4.50;;;4.00;;
3543;SDS011;1786;52.870;9.578;2022-11-12T04:08:22;6.87;;;4.30;;
3543;SDS011;1786;52.870;9.578;2022-11-12T04:11:23;5.07;;;3.70;;
3543;SDS011;1786;52.870;9.578;2022-11-12T04:14:15;3.47;;;3.27;;
3543;SDS011;1786;52.870;9.578;2022-11-12T04:17:10;5.77;;;4.00;;
3543;SDS011;1786;52.870;9.578;2022-11-12T04:20:25;4.50;;;4.00;;
3543;SDS011;1786;52.870;9.578;2022-11-12T04:23:55;3.90;;;3.70;;
3543;SDS011;1786;52.870;9.578;2022-11-12T04:26:48;4.50;;;3.73;;
3543;SDS011;1786;52.870;9.578;2022-11-12T04:29:37;6.83;;;3.70;;
3543;SDS011;1786;52.870;9.578;2022-11-12T04:32:57;5.00;;;3.77;;
3543;SDS011;1786;52.870;9.578;2022-11-12T04:35:47;4.93;;;4.00;;
3543;SDS011;1786;52.870;9.578;2022-11-12T04:38:54;5.87;;;4.60;;
3543;SDS011;1786;52.870;9.578;2022-11-12T04:41:46;3.77;;;3.30;;
3543;SDS011;1786;52.870;9.578;2022-11-12T04:45:15;4.43;;;4.13;;
3543;SDS011;1786;52.870;9.578;2022-11-12T04:48:07;4.23;;;3.90;;
3543;SDS011;1786;52.870;9.578;2022-11-12T04:50:58;7.50;;;5.30;;
3543;SDS011;1786;52.870;9.578;2022-11-12T04:53:51;5.17;;;3.83;;
3543;SDS011;1786;52.870;9.578;2022-11-12T04:56:40;10.50;;;4.60;;
3543;SDS011;1786;52.870;9.578;2022-11-12T04:59:25;5.40;;;3.67;;
3543;SDS011;1786;52.870;9.578;2022-11-12T05:02:13;4.50;;;4.17;;
3543;SDS011;1786;52.870;9.578;2022-11-12T05:04:59;8.77;;;3.40;;
3543;SDS011;1786;52.870;9.578;2022-11-12T05:07:45;3.83;;;3.43;;
3543;SDS011;1786;52.870;9.578;2022-11-12T05:10:30;7.67;;;3.97;;
3543;SDS011;1786;52.870;9.578;2022-11-12T05:13:16;3.40;;;3.20;;
3543;SDS011;1786;52.870;9.578;2022-11-12T05:16:01;4.30;;;3.90;;
3543;SDS011;1786;52.870;9.578;2022-11-12T05:18:49;4.70;;;3.20;;
3543;SDS011;1786;52.870;9.578;2022-11-12T05:21:35;4.70;;;3.10;;
3543;SDS011;1786;52.870;9.578;2022-11-12T05:24:41;4.07;;;3.73;;
3543;SDS011;1786;52.870;9.578;2022-11-12T05:27:28;6.90;;;3.43;;
3543;SDS011;1786;52.870;9.578;2022-11-12T05:30:13;3.47;;;3.17;;
3543;SDS011;1786;52.870;9.578;2022-11-12T05:33:00;3.43;;;3.20;;
3543;SDS011;1786;52.870;9.578;2022-11-12T05:35:45;4.90;;;2.93;;
3543;SDS011;1786;52.870;9.578;2022-11-12T05:38:30;4.07;;;3.30;;
3543;SDS011;1786;52.870;9.578;2022-11-12T05:41:16;4.00;;;2.80;;
3543;SDS011;1786;52.870;9.578;2022-11-12T05:44:04;3.60;;;3.30;;
3543;SDS011;1786;52.870;9.578;2022-11-12T05:46:49;3.30;;;3.00;;
3543;SDS011;1786;52.870;9.578;2022-11-12T05:49:35;3.27;;;2.97;;
3543;SDS011;1786;52.870;9.578;2022-11-12T05:52:20;4.40;;;3.97;;
3543;SDS011;1786;52.870;9.578;2022-11-12T05:55:08;3.17;;;3.00;;
3543;SDS011;1786;52.870;9.578;2022-11-12T05:57:57;4.60;;;3.10;;
3543;SDS011;1786;52.870;9.578;2022-11-12T06:00:52;2.60;;;2.40;;
3543;SDS011;1786;52.870;9.578;2022-11-12T06:03:45;3.13;;;2.80;;
3543;SDS011;1786;52.870;9.578;2022-11-12T06:06:34;5.20;;;3.37;;
3543;SDS011;1786;52.870;9.578;2022-11-12T06:09:29;3.60;;;3.30;;
3543;SDS011;1786;52.870;9.578;2022-11-12T06:12:20;4.00;;;2.93;;
3543;SDS011;1786;52.870;9.578;2022-11-12T06:15:14;3.50;;;3.20;;
3543;SDS011;1786;52.870;9.578;2022-11-12T06:18:06;3.37;;;3.07;;
3543;SDS011;1786;52.870;9.578;2022-11-12T06:21:02;3.10;;;2.90;;
3543;SDS011;1786;52.870;9.578;2022-11-12T06:24:27;9.73;;;3.20;;
3543;SDS011;1786;52.870;9.578;2022-11-12T06:27:30;3.47;;;3.23;;
3543;SDS011;1786;52.870;9.578;2022-11-12T06:30:22;3.33;;;2.80;;
3543;SDS011;1786;52.870;9.578;2022-11-12T06:33:14;4.00;;;2.93;;
3543;SDS011;1786;52.870;9.578;2022-11-12T06:39:49;3.73;;;3.30;;
3543;SDS011;1786;52.870;9.578;2022-11-12T06:42:40;3.70;;;3.40;;
3543;SDS011;1786;52.870;9.578;2022-11-12T06:45:32;4.73;;;4.33;;
3543;SDS011;1786;52.870;9.578;2022-11-12T06:48:24;11.00;;;8.40;;
3543;SDS011;1786;52.870;9.578;2022-11-12T06:51:18;10.27;;;7.07;;
3543;SDS011;1786;52.870;9.578;2022-11-12T06:54:08;13.63;;;6.63;;
3543;SDS011;1786;52.870;9.578;2022-11-12T06:57:00;7.73;;;6.87;;
3543;SDS011;1786;52.870;9.578;2022-11-12T06:59:45;4.73;;;4.30;;
3543;SDS011;1786;52.870;9.578;2022-11-12T07:02:31;7.47;;;3.40;;
3543;SDS011;1786;52.870;9.578;2022-11-12T07:05:16;3.50;;;3.20;;
3543;SDS011;1786;52.870;9.578;2022-11-12T07:08:02;7.70;;;3.60;;
3543;SDS011;1786;52.870;9.578;2022-11-12T07:10:48;4.43;;;4.03;;
3543;SDS011;1786;52.870;9.578;2022-11-12T07:13:33;3.60;;;3.37;;
3543;SDS011;1786;52.870;9.578;2022-11-12T07:16:20;3.37;;;3.17;;
3543;SDS011;1786;52.870;9.578;2022-11-12T07:19:06;3.40;;;3.20;;
3543;SDS011;1786;52.870;9.578;2022-11-12T07:21:51;3.33;;;3.03;;
3543;SDS011;1786;52.870;9.578;2022-11-12T07:24:37;2.63;;;2.53;;
3543;SDS011;1786;52.870;9.578;2022-11-12T07:27:22;3.57;;;3.27;;
3543;SDS011;1786;52.870;9.578;2022-11-12T07:30:08;6.37;;;3.67;;
3543;SDS011;1786;52.870;9.578;2022-11-12T07:32:56;4.93;;;3.00;;
3543;SDS011;1786;52.870;9.578;2022-11-12T07:35:41;3.30;;;3.10;;
3543;SDS011;1786;52.870;9.578;2022-11-12T07:38:27;4.10;;;3.60;;
3543;SDS011;1786;52.870;9.578;2022-11-12T07:41:17;3.77;;;3.37;;
3543;SDS011;1786;52.870;9.578;2022-11-12T07:44:03;11.53;;;4.00;;
3543;SDS011;1786;52.870;9.578;2022-11-12T07:46:49;8.27;;;3.40;;
3543;SDS011;1786;52.870;9.578;2022-11-12T07:49:34;3.73;;;2.50;;
3543;SDS011;1786;52.870;9.578;2022-11-12T07:52:20;5.60;;;3.33;;
3543;SDS011;1786;52.870;9.578;2022-11-12T07:55:05;3.67;;;2.93;;
3543;SDS011;1786;52.870;9.578;2022-11-12T07:57:51;5.60;;;5.10;;
3543;SDS011;1786;52.870;9.578;2022-11-12T08:00:52;10.50;;;8.80;;
3543;SDS011;1786;52.870;9.578;2022-11-12T08:03:47;11.90;;;8.80;;
3543;SDS011;1786;52.870;9.578;2022-11-12T08:06:36;17.20;;;10.87;;
3543;SDS011;1786;52.870;9.578;2022-11-12T08:09:28;18.90;;;10.43;;
3543;SDS011;1786;52.870;9.578;2022-11-12T08:12:21;13.80;;;8.00;;
3543;SDS011;1786;52.870;9.578;2022-11-12T08:15:14;10.83;;;7.37;;
3543;SDS011;1786;52.870;9.578;2022-11-12T08:18:04;8.43;;;7.53;;
3543;SDS011;1786;52.870;9.578;2022-11-12T08:21:00;7.60;;;6.90;;
3543;SDS011;1786;52.870;9.578;2022-11-12T08:24:03;8.67;;;6.43;;
3543;SDS011;1786;52.870;9.578;2022-11-12T08:26:55;7.23;;;6.30;;
3543;SDS011;1786;52.870;9.578;2022-11-12T08:29:47;6.43;;;5.90;;
3543;SDS011;1786;52.870;9.578;2022-11-12T08:32:35;4.70;;;4.37;;
3543;SDS011;1786;52.870;9.578;2022-11-12T08:35:32;5.57;;;4.50;;
3543;SDS011;1786;52.870;9.578;2022-11-12T08:38:25;6.60;;;4.40;;
3543;SDS011;1786;52.870;9.578;2022-11-12T08:41:26;4.47;;;4.10;;
3543;SDS011;1786;52.870;9.578;2022-11-12T08:44:20;4.50;;;3.90;;
3543;SDS011;1786;52.870;9.578;2022-11-12T08:47:22;4.00;;;3.57;;
3543;SDS011;1786;52.870;9.578;2022-11-12T08:50:29;5.50;;;5.00;;
3543;SDS011;1786;52.870;9.578;2022-11-12T08:53:21;5.97;;;5.47;;
3543;SDS011;1786;52.870;9.578;2022-11-12T08:56:23;7.23;;;5.33;;
3543;SDS011;1786;52.870;9.578;2022-11-12T08:59:16;4.80;;;4.40;;
3543;SDS011;1786;52.870;9.578;2022-11-12T09:02:10;6.10;;;4.70;;
3543;SDS011;1786;52.870;9.578;2022-11-12T09:05:00;6.50;;;4.60;;
3543;SDS011;1786;52.870;9.578;2022-11-12T09:07:59;9.27;;;6.30;;
3543;SDS011;1786;52.870;9.578;2022-11-12T09:11:35;6.33;;;4.70;;
3543;SDS011;1786;52.870;9.578;2022-11-12T09:14:37;9.00;;;5.07;;
3543;SDS011;1786;52.870;9.578;2022-11-12T09:17:29;5.10;;;4.63;;
3543;SDS011;1786;52.870;9.578;2022-11-12T09:20:23;5.63;;;5.13;;
3543;SDS011;1786;52.870;9.578;2022-11-12T09:23:15;4.90;;;4.47;;
3543;SDS011;1786;52.870;9.578;2022-11-12T09:26:05;5.00;;;4.60;;
3543;SDS011;1786;52.870;9.578;2022-11-12T09:28:54;6.83;;;4.90;;
3543;SDS011;1786;52.870;9.578;2022-11-12T09:31:53;7.07;;;4.90;;
3543;SDS011;1786;52.870;9.578;2022-11-12T09:37:59;8.20;;;5.97;;
3543;SDS011;1786;52.870;9.578;2022-11-12T09:44:36;7.70;;;5.53;;
3543;SDS011;1786;52.870;9.578;2022-11-12T09:47:40;4.90;;;4.50;;
3543;SDS011;1786;52.870;9.578;2022-11-12T09:54:33;6.43;;;5.83;;
3543;SDS011;1786;52.870;9.578;2022-11-12T09:57:19;6.23;;;5.30;;
3543;SDS011;1786;52.870;9.578;2022-11-12T10:00:17;7.03;;;6.43;;
3543;SDS011;1786;52.870;9.578;2022-11-12T10:03:07;6.93;;;6.23;;
3543;SDS011;1786;52.870;9.578;2022-11-12T10:06:14;11.80;;;7.70;;
3543;SDS011;1786;52.870;9.578;2022-11-12T10:09:14;11.07;;;6.23;;
3543;SDS011;1786;52.870;9.578;2022-11-12T10:12:17;6.80;;;5.63;;
3543;SDS011;1786;52.870;9.578;2022-11-12T10:15:19;5.73;;;5.20;;
3543;SDS011;1786;52.870;9.578;2022-11-12T10:21:40;16.13;;;10.80;;
3543;SDS011;1786;52.870;9.578;2022-11-12T10:24:46;9.40;;;6.97;;
3543;SDS011;1786;52.870;9.578;2022-11-12T10:27:34;10.47;;;7.80;;
3543;SDS011;1786;52.870;9.578;2022-11-12T10:30:24;16.50;;;9.10;;
3543;SDS011;1786;52.870;9.578;2022-11-12T10:33:13;30.93;;;12.70;;
3543;SDS011;1786;52.870;9.578;2022-11-12T10:36:10;32.93;;;13.87;;
3543;SDS011;1786;52.870;9.578;2022-11-12T10:39:03;9.20;;;6.70;;
3543;SDS011;1786;52.870;9.578;2022-11-12T10:41:50;9.07;;;6.97;;
3543;SDS011;1786;52.870;9.578;2022-11-12T10:44:48;9.50;;;6.87;;
3543;SDS011;1786;52.870;9.578;2022-11-12T10:47:36;15.53;;;6.30;;
3543;SDS011;1786;52.870;9.578;2022-11-12T10:50:40;5.87;;;5.13;;
3543;SDS011;1786;52.870;9.578;2022-11-12T10:53:36;6.57;;;5.40;;
3543;SDS011;1786;52.870;9.578;2022-11-12T10:56:30;5.50;;;4.90;;
3543;SDS011;1786;52.870;9.578;2022-11-12T10:59:17;5.30;;;4.90;;
3543;SDS011;1786;52.870;9.578;2022-11-12T11:02:13;9.60;;;4.90;;
3543;SDS011;1786;52.870;9.578;2022-11-12T11:08:15;5.03;;;4.60;;
3543;SDS011;1786;52.870;9.578;2022-11-12T11:11:30;5.83;;;5.33;;
3543;SDS011;1786;52.870;9.578;2022-11-12T11:17:12;12.03;;;7.17;;
3543;SDS011;1786;52.870;9.578;2022-11-12T11:20:02;5.00;;;4.50;;
3543;SDS011;1786;52.870;9.578;2022-11-12T11:22:58;5.83;;;4.10;;
3543;SDS011;1786;52.870;9.578;2022-11-12T11:25:51;5.17;;;4.47;;
3543;SDS011;1786;52.870;9.578;2022-11-12T11:28:40;6.10;;;4.37;;
3543;SDS011;1786;52.870;9.578;2022-11-12T11:31:39;4.37;;;4.07;;
3543;SDS011;1786;52.870;9.578;2022-11-12T11:34:37;4.17;;;3.87;;
3543;SDS011;1786;52.870;9.578;2022-11-12T11:37:36;4.90;;;3.70;;
3543;SDS011;1786;52.870;9.578;2022-11-12T11:40:33;5.13;;;4.23;;
3543;SDS011;1786;52.870;9.578;2022-11-12T11:52:54;5.93;;;4.37;;
3543;SDS011;1786;52.870;9.578;2022-11-12T11:58:41;6.40;;;4.47;;
3543;SDS011;1786;52.870;9.578;2022-11-12T12:01:37;6.03;;;4.00;;
3543;SDS011;1786;52.870;9.578;2022-11-12T12:10:29;6.13;;;4.60;;
3543;SDS011;1786;52.870;9.578;2022-11-12T12:17:03;3.67;;;3.43;;
3543;SDS011;1786;52.870;9.578;2022-11-12T12:20:18;4.93;;;3.33;;
3543;SDS011;1786;52.870;9.578;2022-11-12T12:26:15;4.70;;;4.40;;
3543;SDS011;1786;52.870;9.578;2022-11-12T12:29:18;3.43;;;3.23;;
3543;SDS011;1786;52.870;9.578;2022-11-12T12:32:16;4.00;;;3.70;;
3543;SDS011;1786;52.870;9.578;2022-11-12T12:35:25;5.00;;;3.50;;
3543;SDS011;1786;52.870;9.578;2022-11-12T12:51:29;7.57;;;5.33;;
3543;SDS011;1786;52.870;9.578;2022-11-12T12:57:33;5.10;;;3.87;;
3543;SDS011;1786;52.870;9.578;2022-11-12T13:00:34;7.67;;;4.03;;
3543;SDS011;1786;52.870;9.578;2022-11-12T13:04:08;5.03;;;3.00;;
3543;SDS011;1786;52.870;9.578;2022-11-12T13:09:37;10.13;;;5.00;;
3543;SDS011;1786;52.870;9.578;2022-11-12T13:12:28;20.90;;;7.23;;
3543;SDS011;1786;52.870;9.578;2022-11-12T13:15:50;7.13;;;5.17;;
3543;SDS011;1786;52.870;9.578;2022-11-12T13:21:26;5.57;;;3.90;;
3543;SDS011;1786;52.870;9.578;2022-11-12T13:24:12;16.37;;;8.83;;
3543;SDS011;1786;52.870;9.578;2022-11-12T13:26:58;10.70;;;5.90;;
3543;SDS011;1786;52.870;9.578;2022-11-12T13:29:45;8.33;;;3.93;;
3543;SDS011;1786;52.870;9.578;2022-11-12T13:32:33;1.90;;;1.80;;
3543;SDS011;1786;52.870;9.578;2022-11-12T13:35:33;1.60;;;1.53;;
3543;SDS011;1786;52.870;9.578;2022-11-12T13:38:23;18.30;;;10.13;;
3543;SDS011;1786;52.870;9.578;2022-11-12T13:44:02;9.47;;;5.47;;
3543;SDS011;1786;52.870;9.578;2022-11-12T13:46:50;9.23;;;4.80;;
3543;SDS011;1786;52.870;9.578;2022-11-12T13:49:36;10.93;;;5.93;;
3543;SDS011;1786;52.870;9.578;2022-11-12T13:52:22;6.83;;;5.87;;
3543;SDS011;1786;52.870;9.578;2022-11-12T13:55:12;2.83;;;2.57;;
3543;SDS011;1786;52.870;9.578;2022-11-12T13:58:02;7.80;;;6.30;;
3543;SDS011;1786;52.870;9.578;2022-11-12T14:00:51;5.30;;;3.23;;
3543;SDS011;1786;52.870;9.578;2022-11-12T14:03:46;5.80;;;5.30;;
3543;SDS011;1786;52.870;9.578;2022-11-12T14:06:35;3.90;;;3.37;;
3543;SDS011;1786;52.870;9.578;2022-11-12T14:12:33;2.87;;;1.63;;
3543;SDS011;1786;52.870;9.578;2022-11-12T14:18:46;1.67;;;1.57;;
3543;SDS011;1786;52.870;9.578;2022-11-12T14:22:27;1.83;;;1.73;;
3543;SDS011;1786;52.870;9.578;2022-11-12T14:25:00;2.40;;;1.83;;
3543;SDS011;1786;52.870;9.578;2022-11-12T14:27:48;4.17;;;2.20;;
3543;SDS011;1786;52.870;9.578;2022-11-12T14:30:34;2.33;;;2.23;;
3543;SDS011;1786;52.870;9.578;2022-11-12T14:33:29;2.23;;;2.13;;
3543;SDS011;1786;52.870;9.578;2022-11-12T14:36:16;3.47;;;2.00;;
3543;SDS011;1786;52.870;9.578;2022-11-12T14:39:03;3.83;;;2.50;;
3543;SDS011;1786;52.870;9.578;2022-11-12T14:41:48;2.57;;;2.33;;
3543;SDS011;1786;52.870;9.578;2022-11-12T14:44:35;2.70;;;2.50;;
3543;SDS011;1786;52.870;9.578;2022-11-12T14:47:21;3.57;;;3.07;;
3543;SDS011;1786;52.870;9.578;2022-11-12T14:50:16;4.70;;;2.40;;
3543;SDS011;1786;52.870;9.578;2022-11-12T14:53:22;2.43;;;2.20;;
3543;SDS011;1786;52.870;9.578;2022-11-12T14:56:27;2.13;;;1.90;;
3543;SDS011;1786;52.870;9.578;2022-11-12T14:59:20;11.17;;;2.60;;
3543;SDS011;1786;52.870;9.578;2022-11-12T15:02:12;2.10;;;2.00;;
3543;SDS011;1786;52.870;9.578;2022-11-12T15:05:21;5.03;;;2.73;;
3543;SDS011;1786;52.870;9.578;2022-11-12T15:08:10;2.27;;;2.13;;
3543;SDS011;1786;52.870;9.578;2022-11-12T15:10:56;2.67;;;2.47;;
3543;SDS011;1786;52.870;9.578;2022-11-12T15:14:05;4.63;;;3.50;;
3543;SDS011;1786;52.870;9.578;2022-11-12T15:16:57;7.60;;;3.10;;
3543;SDS011;1786;52.870;9.578;2022-11-12T15:19:44;2.50;;;2.40;;
3543;SDS011;1786;52.870;9.578;2022-11-12T15:22:30;2.70;;;2.50;;
3543;SDS011;1786;52.870;9.578;2022-11-12T15:25:19;3.00;;;2.83;;
3543;SDS011;1786;52.870;9.578;2022-11-12T15:28:20;3.80;;;3.43;;
3543;SDS011;1786;52.870;9.578;2022-11-12T15:31:14;4.37;;;4.03;;
3543;SDS011;1786;52.870;9.578;2022-11-12T15:37:24;6.33;;;3.70;;
3543;SDS011;1786;52.870;9.578;2022-11-12T15:40:16;15.27;;;4.83;;
3543;SDS011;1786;52.870;9.578;2022-11-12T15:43:03;7.20;;;3.90;;
3543;SDS011;1786;52.870;9.578;2022-11-12T15:45:59;7.03;;;4.50;;
3543;SDS011;1786;52.870;9.578;2022-11-12T15:48:45;4.43;;;3.60;;
3543;SDS011;1786;52.870;9.578;2022-11-12T15:51:37;5.40;;;4.23;;
3543;SDS011;1786;52.870;9.578;2022-11-12T15:54:22;8.77;;;3.50;;
3543;SDS011;1786;52.870;9.578;2022-11-12T15:57:09;9.93;;;4.43;;
3543;SDS011;1786;52.870;9.578;2022-11-12T16:00:00;10.77;;;4.30;;
3543;SDS011;1786;52.870;9.578;2022-11-12T16:03:08;7.10;;;3.87;;
3543;SDS011;1786;52.870;9.578;2022-11-12T16:05:54;5.57;;;3.10;;
3543;SDS011;1786;52.870;9.578;2022-11-12T16:08:40;4.70;;;3.93;;
3543;SDS011;1786;52.870;9.578;2022-11-12T16:11:25;4.20;;;3.80;;
3543;SDS011;1786;52.870;9.578;2022-11-12T16:14:19;9.10;;;4.10;;
3543;SDS011;1786;52.870;9.578;2022-11-12T16:17:12;6.43;;;3.93;;
3543;SDS011;1786;52.870;9.578;2022-11-12T16:19:59;7.30;;;4.57;;
3543;SDS011;1786;52.870;9.578;2022-11-12T16:22:46;5.53;;;4.77;;
3543;SDS011;1786;52.870;9.578;2022-11-12T16:25:35;9.63;;;4.30;;
3543;SDS011;1786;52.870;9.578;2022-11-12T16:28:22;4.97;;;4.57;;
3543;SDS011;1786;52.870;9.578;2022-11-12T16:31:07;6.13;;;5.20;;
3543;SDS011;1786;52.870;9.578;2022-11-12T16:33:52;9.60;;;5.60;;
3543;SDS011;1786;52.870;9.578;2022-11-12T16:36:37;6.83;;;5.27;;
3543;SDS011;1786;52.870;9.578;2022-11-12T16:39:24;5.97;;;4.63;;
3543;SDS011;1786;52.870;9.578;2022-11-12T16:42:09;7.33;;;5.47;;
3543;SDS011;1786;52.870;9.578;2022-11-12T16:44:54;9.00;;;5.53;;
3543;SDS011;1786;52.870;9.578;2022-11-12T16:47:50;7.57;;;5.40;;
3543;SDS011;1786;52.870;9.578;2022-11-12T16:50:37;6.33;;;4.97;;
3543;SDS011;1786;52.870;9.578;2022-11-12T16:53:23;5.00;;;4.60;;
3543;SDS011;1786;52.870;9.578;2022-11-12T16:56:13;4.50;;;4.10;;
3543;SDS011;1786;52.870;9.578;2022-11-12T16:59:01;6.03;;;4.03;;
3543;SDS011;1786;52.870;9.578;2022-11-12T17:01:46;4.23;;;3.83;;
3543;SDS011;1786;52.870;9.578;2022-11-12T17:04:32;5.20;;;4.70;;
3543;SDS011;1786;52.870;9.578;2022-11-12T17:07:17;6.33;;;4.37;;
3543;SDS011;1786;52.870;9.578;2022-11-12T17:10:02;9.30;;;4.60;;
3543;SDS011;1786;52.870;9.578;2022-11-12T17:12:48;6.27;;;4.23;;
3543;SDS011;1786;52.870;9.578;2022-11-12T17:15:34;3.57;;;3.27;;
3543;SDS011;1786;52.870;9.578;2022-11-12T17:18:20;3.70;;;3.40;;
3543;SDS011;1786;52.870;9.578;2022-11-12T17:21:15;3.43;;;3.10;;
3543;SDS011;1786;52.870;9.578;2022-11-12T17:24:02;24.83;;;11.90;;
3543;SDS011;1786;52.870;9.578;2022-11-12T17:26:47;16.63;;;6.37;;
3543;SDS011;1786;52.870;9.578;2022-11-12T17:29:32;14.57;;;5.53;;
3543;SDS011;1786;52.870;9.578;2022-11-12T17:32:19;14.90;;;6.30;;
3543;SDS011;1786;52.870;9.578;2022-11-12T17:35:04;7.07;;;4.30;;
3543;SDS011;1786;52.870;9.578;2022-11-12T17:37:50;10.40;;;4.80;;
3543;SDS011;1786;52.870;9.578;2022-11-12T17:40:36;6.90;;;4.37;;
3543;SDS011;1786;52.870;9.578;2022-11-12T17:43:21;4.73;;;4.20;;
3543;SDS011;1786;52.870;9.578;2022-11-12T17:46:07;7.37;;;4.47;;
3543;SDS011;1786;52.870;9.578;2022-11-12T17:48:54;7.70;;;4.70;;
3543;SDS011;1786;52.870;9.578;2022-11-12T17:51:39;13.13;;;4.43;;
3543;SDS011;1786;52.870;9.578;2022-11-12T17:54:25;5.03;;;4.50;;
3543;SDS011;1786;52.870;9.578;2022-11-12T17:57:10;10.27;;;5.70;;
3543;SDS011;1786;52.870;9.578;2022-11-12T17:59:55;4.97;;;4.50;;
3543;SDS011;1786;52.870;9.578;2022-11-12T18:02:41;11.60;;;5.87;;
3543;SDS011;1786;52.870;9.578;2022-11-12T18:05:26;8.13;;;4.90;;
3543;SDS011;1786;52.870;9.578;2022-11-12T18:08:11;8.17;;;6.90;;
3543;SDS011;1786;52.870;9.578;2022-11-12T18:10:57;9.70;;;5.67;;
3543;SDS011;1786;52.870;9.578;2022-11-12T18:13:42;6.40;;;5.80;;
3543;SDS011;1786;52.870;9.578;2022-11-12T18:16:28;7.83;;;6.57;;
3543;SDS011;1786;52.870;9.578;2022-11-12T18:19:13;8.77;;;6.80;;
3543;SDS011;1786;52.870;9.578;2022-11-12T18:21:59;10.40;;;6.07;;
3543;SDS011;1786;52.870;9.578;2022-11-12T18:24:46;8.50;;;6.43;;
3543;SDS011;1786;52.870;9.578;2022-11-12T18:27:34;8.10;;;6.30;;
3543;SDS011;1786;52.870;9.578;2022-11-12T18:30:20;9.40;;;6.27;;
3543;SDS011;1786;52.870;9.578;2022-11-12T18:33:06;10.27;;;6.40;;
3543;SDS011;1786;52.870;9.578;2022-11-12T18:36:01;9.90;;;6.97;;
3543;SDS011;1786;52.870;9.578;2022-11-12T18:38:49;9.00;;;7.33;;
3543;SDS011;1786;52.870;9.578;2022-11-12T18:41:36;24.07;;;8.70;;
3543;SDS011;1786;52.870;9.578;2022-11-12T18:44:21;15.63;;;10.20;;
3543;SDS011;1786;52.870;9.578;2022-11-12T18:47:10;22.93;;;12.80;;
3543;SDS011;1786;52.870;9.578;2022-11-12T18:49:55;20.40;;;13.13;;
3543;SDS011;1786;52.870;9.578;2022-11-12T18:52:40;15.33;;;9.20;;
3543;SDS011;1786;52.870;9.578;2022-11-12T18:55:26;17.70;;;11.90;;
3543;SDS011;1786;52.870;9.578;2022-11-12T18:58:11;16.80;;;10.63;;
3543;SDS011;1786;52.870;9.578;2022-11-12T19:01:00;8.70;;;7.83;;
3543;SDS011;1786;52.870;9.578;2022-11-12T19:03:51;12.87;;;8.13;;
3543;SDS011;1786;52.870;9.578;2022-11-12T19:06:37;18.20;;;8.60;;